Daio — JG5587 — position and weather

sailwx.info

Track history (hours):
 
Tides and Currents Weather Stations Pressure Air Temp Water Temp Dewpoint Dewpoint Depression Visibility Wind Speed Wind Dir Waves Ship Positions

Daio

Last reported at 2016-Jun-01 03:34 UTC. Time now 2016-Jun-01 03:40 UTC.
Position N 35°36' E 140°07'.

Length 36 m; draft 3.4 m.

Type: Tug. MMSI: 431003092.

Date/timePositionNaut miles runAvg speedWind from/ knotsBaromVisibWave heightAir tempDewpointWater temp
2016-Jun-01 03:34N 35°36' E 140°07'0 0.0
2016-Jun-01 02:34N 35°36' E 140°07'1 1.0
2016-Jun-01 01:34N 35°36' E 140°06'1 1.3
2016-Jun-01 00:33N 35°35' E 140°04'1 0.6
2016-May-31 23:33N 35°35' E 140°04'2 2.4
2016-May-31 22:33N 35°36' E 140°07'0 0.2
2016-May-31 21:32N 35°36' E 140°07'0 0.0
2016-May-31 20:33N 35°36' E 140°07'0 0.0
2016-May-31 19:33N 35°36' E 140°07'0 0.0
2016-May-31 18:33N 35°36' E 140°07'0 0.0
2016-May-31 17:33N 35°36' E 140°07'0 0.0
2016-May-31 16:33N 35°36' E 140°07'0 0.0
2016-May-31 15:33N 35°36' E 140°07'0 0.0
2016-May-31 14:33N 35°36' E 140°07'0 0.0
2016-May-31 13:33N 35°36' E 140°07'0 0.0
2016-May-31 12:33N 35°36' E 140°07'0 0.0
2016-May-31 11:33N 35°36' E 140°07'0 0.0
2016-May-31 10:33N 35°36' E 140°07'0 0.0
2016-May-31 09:33N 35°36' E 140°07'0 0.0
2016-May-31 08:33N 35°36' E 140°07'0 0.0
2016-May-31 07:33N 35°36' E 140°07'0 0.0
2016-May-31 06:33N 35°36' E 140°07'0 0.0
2016-May-31 04:33N 35°36' E 140°07'0 0.0
2016-May-31 03:33N 35°36' E 140°07'5 5.5
2016-May-31 02:33N 35°32' E 140°02'2 2.2
2016-May-31 01:33N 35°30' E 140°01'0 0.4
2016-May-31 00:33N 35°30' E 140°01'5 5.1
2016-May-30 23:33N 35°34' E 139°57'8 8.4
2016-May-30 22:33N 35°36' E 140°07'0 0.0
2016-May-30 21:34N 35°36' E 140°07'0 0.0
2016-May-30 20:34N 35°36' E 140°07'0 0.0
2016-May-30 19:32N 35°36' E 140°07'0 0.0
2016-May-30 18:33N 35°36' E 140°07'0 0.0
2016-May-30 17:33N 35°36' E 140°07'0 0.0
2016-May-30 16:34N 35°36' E 140°07'0 0.0
2016-May-30 15:33N 35°36' E 140°07'0 0.0
2016-May-30 14:34N 35°36' E 140°07'0 0.0
2016-May-30 13:33N 35°36' E 140°07'0 0.0
2016-May-30 12:34N 35°36' E 140°07'0 0.0
2016-May-30 11:34N 35°36' E 140°07'0 0.0
2016-May-30 10:34N 35°36' E 140°07'5 5.2
2016-May-30 09:33N 35°32' E 140°02'6 5.6
2016-May-30 08:34N 35°28' E 139°58'3 3.2
2016-May-30 07:33N 35°30' E 140°01'5 4.6
2016-May-30 06:33N 35°34' E 140°04'3 3.2
2016-May-30 05:33N 35°36' E 140°07'0 0.0
2016-May-30 04:33N 35°36' E 140°07'0 0.0
2016-May-30 03:33N 35°36' E 140°07'0 0.0
2016-May-30 02:33N 35°36' E 140°07'0 0.0
2016-May-30 01:33N 35°36' E 140°07'0 0.0
2016-May-30 00:33N 35°36' E 140°07'0 0.0
2016-May-29 23:33N 35°36' E 140°07'1 0.8
2016-May-29 22:33N 35°35' E 140°06'4 3.8
2016-May-29 21:33N 35°34' E 140°02'3 2.6
2016-May-29 20:33N 35°35' E 140°05'2 1.8
2016-May-29 19:33N 35°36' E 140°07'0 0.0
2016-May-29 18:33N 35°36' E 140°07'0 0.0
2016-May-29 17:33N 35°36' E 140°07'0 0.0
2016-May-29 16:33N 35°36' E 140°07'0 0.0
2016-May-29 15:33N 35°36' E 140°07'0 0.0
2016-May-29 14:33N 35°36' E 140°07'0 0.0
2016-May-29 13:33N 35°36' E 140°07'0 0.0
2016-May-29 12:33N 35°36' E 140°07'0 0.0
2016-May-29 11:33N 35°36' E 140°07'0 0.0
2016-May-29 10:33N 35°36' E 140°07'0 0.0
2016-May-29 09:32N 35°36' E 140°07'0 0.0
2016-May-29 08:33N 35°36' E 140°07'3 3.5
2016-May-29 07:33N 35°34' E 140°03'4 4.3
2016-May-29 06:33N 35°30' E 140°01'0 0.3
2016-May-29 05:33N 35°30' E 140°01'4 4.4
2016-May-29 04:33N 35°33' E 139°57'8 8.4
2016-May-29 03:33N 35°36' E 140°07'0 0.0
2016-May-29 02:33N 35°36' E 140°07'0 0.0
2016-May-29 01:33N 35°36' E 140°07'0 0.0
2016-May-29 00:33N 35°36' E 140°07'0 0.0
2016-May-28 23:32N 35°36' E 140°07'7 7.4
2016-May-28 22:33N 35°30' E 140°02'2 2.0
2016-May-28 21:33N 35°30' E 139°59'8 8.0
2016-May-28 20:33N 35°36' E 140°07'0 0.1
2016-May-28 19:33N 35°36' E 140°07'0 0.0
2016-May-28 18:34N 35°36' E 140°07'0 0.0
2016-May-28 17:33N 35°36' E 140°07'0 0.0
2016-May-28 16:34N 35°36' E 140°07'0 0.0
2016-May-28 15:34N 35°36' E 140°07'0 0.0
2016-May-28 14:33N 35°36' E 140°07'0 0.0
2016-May-28 13:33N 35°36' E 140°07'0 0.0
2016-May-28 12:34N 35°36' E 140°07'0 0.0
2016-May-28 11:33N 35°36' E 140°07'0 0.0
2016-May-28 10:34N 35°36' E 140°07'0 0.0
2016-May-28 09:33N 35°36' E 140°07'0 0.0
2016-May-28 08:34N 35°36' E 140°07'0 0.0
2016-May-28 07:34N 35°36' E 140°07'3 3.4
2016-May-28 06:34N 35°33' E 140°05'3 3.4
2016-May-28 05:34N 35°34' E 140°01'5 4.8
2016-May-28 04:34N 35°36' E 140°07'0 0.1
2016-May-28 03:34N 35°36' E 140°07'0 0.0
2016-May-28 02:34N 35°36' E 140°07'2 1.6
2016-May-28 01:34N 35°36' E 140°05'1 1.1
2016-May-28 00:32N 35°35' E 140°04'1 1.0
2016-May-27 23:34N 35°35' E 140°03'0 0.5
2016-May-27 22:34N 35°35' E 140°03'3 2.9
2016-May-27 21:33N 35°36' E 140°07'0 0.0
2016-May-27 20:33N 35°36' E 140°07'0 0.0
2016-May-27 19:33N 35°36' E 140°07'0 0.0
2016-May-27 18:33N 35°36' E 140°07'0 0.0
2016-May-27 17:33N 35°36' E 140°07'0 0.0
2016-May-27 16:33N 35°36' E 140°07'0 0.0
2016-May-27 15:33N 35°36' E 140°07'0 0.0
2016-May-27 14:34N 35°36' E 140°07'0 0.0
2016-May-27 13:33N 35°36' E 140°07'0 0.0
2016-May-27 12:33N 35°36' E 140°07'0 0.0
2016-May-27 11:34N 35°36' E 140°07'0 0.0
2016-May-27 10:33N 35°36' E 140°07'0 0.0
2016-May-27 09:33N 35°36' E 140°07'0 0.0
2016-May-27 08:33N 35°36' E 140°07'0 0.0
2016-May-27 07:33N 35°36' E 140°07'0 0.0
2016-May-27 06:33N 35°36' E 140°07'0 0.0
2016-May-27 05:34N 35°36' E 140°07'7 7.0
2016-May-27 04:33N 35°31' E 140°00'4 4.4
2016-May-27 03:33N 35°27' E 139°58'9 9.1
2016-May-27 02:33N 35°35' E 140°04'0 0.4
2016-May-27 01:33N 35°35' E 140°05'0 0.0
2016-May-27 00:33N 35°35' E 140°05'1 1.4
2016-May-26 23:33N 35°35' E 140°06'1 1.0
2016-May-26 22:33N 35°36' E 140°05'1 0.9
2016-May-26 21:33N 35°36' E 140°04'0 0.0
2016-May-26 20:34N 35°36' E 140°04'2 2.2
2016-May-26 19:33N 35°36' E 140°07'0 0.0
2016-May-26 18:34N 35°36' E 140°07'0 0.0
2016-May-26 17:33N 35°36' E 140°07'0 0.0
2016-May-26 16:33N 35°36' E 140°07'0 0.0
2016-May-26 15:34N 35°36' E 140°07'0 0.0
2016-May-26 14:33N 35°36' E 140°07'0 0.0
2016-May-26 13:33N 35°36' E 140°07'0 0.0
2016-May-26 12:33N 35°36' E 140°07'0 0.0
2016-May-26 11:33N 35°36' E 140°07'8 8.0
2016-May-26 10:33N 35°40' E 139°59'0 0.1
2016-May-26 09:33N 35°40' E 139°59'0 0.4
2016-May-26 08:33N 35°40' E 139°59'7 6.6
2016-May-26 07:34N 35°36' E 140°06'0 0.1
2016-May-26 06:33N 35°36' E 140°05'1 1.3
2016-May-26 05:33N 35°36' E 140°07'0 0.0
2016-May-26 04:33N 35°36' E 140°07'0 0.0
2016-May-26 03:33N 35°36' E 140°07'0 0.0
2016-May-26 02:32N 35°36' E 140°07'0 0.0
2016-May-26 01:33N 35°36' E 140°07'7 6.5
2016-May-26 00:33N 35°33' E 139°60'3 3.2
2016-May-25 23:33N 35°30' E 140°02'7 7.4
2016-May-25 22:33N 35°36' E 140°07'0 0.0
2016-May-25 21:34N 35°36' E 140°07'0 0.0
2016-May-25 20:34N 35°36' E 140°07'0 0.0
2016-May-25 19:34N 35°36' E 140°07'0 0.0
2016-May-25 18:34N 35°36' E 140°07'0 0.0
2016-May-25 17:33N 35°36' E 140°07'0 0.0
2016-May-25 16:33N 35°36' E 140°07'0 0.0
2016-May-25 15:33N 35°36' E 140°07'0 0.0
2016-May-25 14:33N 35°36' E 140°07'0 0.0
2016-May-25 13:33N 35°36' E 140°07'0 0.0
2016-May-25 12:33N 35°36' E 140°07'0 0.0
2016-May-25 11:33N 35°36' E 140°07'0 0.0
2016-May-25 10:33N 35°36' E 140°07'0 0.0
2016-May-25 09:33N 35°36' E 140°07'0 0.0
2016-May-25 08:33N 35°36' E 140°07'0 0.0
2016-May-25 05:33N 35°36' E 140°07'9 8.8
2016-May-25 04:33N 35°34' E 139°56'4 3.7
2016-May-25 03:33N 35°32' E 139°60'2 2.2
2016-May-25 02:33N 35°30' E 140°01'8 7.5
2016-May-25 01:33N 35°36' E 140°07'0 0.0
2016-May-25 00:33N 35°36' E 140°07'0 0.0
2016-May-24 23:33N 35°36' E 140°07'1 1.3
2016-May-24 22:33N 35°36' E 140°05'5 5.1
2016-May-24 21:33N 35°34' E 140°00'1 1.1
2016-May-24 20:33N 35°34' E 140°02'5 4.8
2016-May-24 19:33N 35°36' E 140°07'0 0.0
2016-May-24 18:33N 35°36' E 140°07'0 0.0
2016-May-24 17:33N 35°36' E 140°07'0 0.0
2016-May-24 16:33N 35°36' E 140°07'0 0.0
2016-May-24 15:33N 35°36' E 140°07'0 0.0
2016-May-24 14:34N 35°36' E 140°07'0 0.0
2016-May-24 13:33N 35°36' E 140°07'0 0.0
2016-May-24 12:33N 35°36' E 140°07'0 0.0
2016-May-24 11:33N 35°36' E 140°07'0 0.0
2016-May-24 10:33N 35°36' E 140°07'0 0.0
2016-May-24 09:33N 35°36' E 140°07'0 0.0
2016-May-24 08:33N 35°36' E 140°07'5 5.2
2016-May-24 07:34N 35°37' E 140°01'4 3.7
2016-May-24 06:34N 35°40' E 139°59'1 0.9
2016-May-24 05:34N 35°40' E 139°60'0 0.0
2016-May-24 04:33N 35°40' E 139°60'0 0.0
2016-May-24 03:33N 35°40' E 139°60'5 5.4
2016-May-24 02:33N 35°35' E 140°04'3 2.6
2016-May-24 01:33N 35°36' E 140°07'0 0.0
2016-May-24 00:33N 35°36' E 140°07'0 0.0
2016-May-23 23:33N 35°36' E 140°07'0 0.0
2016-May-23 22:33N 35°36' E 140°07'0 0.0
2016-May-23 21:33N 35°36' E 140°07'0 0.0
2016-May-23 20:33N 35°36' E 140°07'0 0.0
2016-May-23 19:33N 35°36' E 140°07'0 0.0
2016-May-23 18:33N 35°36' E 140°07'0 0.0
2016-May-23 17:33N 35°36' E 140°07'0 0.0
2016-May-23 16:33N 35°36' E 140°07'0 0.0
2016-May-23 15:33N 35°36' E 140°07'0 0.0
2016-May-23 14:33N 35°36' E 140°07'0 0.0
2016-May-23 13:33N 35°36' E 140°07'0 0.0
2016-May-23 12:33N 35°36' E 140°07'0 0.0
2016-May-23 11:33N 35°36' E 140°07'0 0.0
2016-May-23 10:33N 35°36' E 140°07'0 0.0
2016-May-23 09:33N 35°36' E 140°07'0 0.0
2016-May-23 08:33N 35°36' E 140°07'2 1.7
2016-May-23 07:33N 35°36' E 140°05'2 1.7
2016-May-23 06:33N 35°36' E 140°07'0 0.0
2016-May-23 05:33N 35°36' E 140°07'0 0.0
2016-May-23 04:33N 35°36' E 140°07'0 0.0
2016-May-23 03:33N 35°36' E 140°07'0 0.0
2016-May-23 02:34N 35°36' E 140°07'0 0.1
2016-May-23 01:34N 35°36' E 140°07'1 0.7
2016-May-23 00:33N 35°35' E 140°06'2 1.7
2016-May-22 23:33N 35°35' E 140°04'1 1.4
2016-May-22 22:33N 35°36' E 140°05'3 3.3
2016-May-22 21:33N 35°34' E 140°02'4 4.1
2016-May-22 20:33N 35°36' E 140°07'0 0.0
2016-May-22 19:31N 35°36' E 140°07'0 0.0
2016-May-22 18:34N 35°36' E 140°07'0 0.0
2016-May-22 17:33N 35°36' E 140°07'0 0.0
2016-May-22 16:33N 35°36' E 140°07'0 0.0
2016-May-22 15:33N 35°36' E 140°07'0 0.0
2016-May-22 14:33N 35°36' E 140°07'0 0.0
2016-May-22 13:34N 35°36' E 140°07'0 0.0
2016-May-22 12:33N 35°36' E 140°07'0 0.0
2016-May-22 11:34N 35°36' E 140°07'0 0.0
2016-May-22 10:33N 35°36' E 140°07'0 0.0
2016-May-22 09:34N 35°36' E 140°07'6 6.2
2016-May-22 08:34N 35°33' E 140°00'4 3.8
2016-May-22 07:33N 35°31' E 139°56'2 2.4
2016-May-22 06:33N 35°28' E 139°57'0 0.0
2016-May-22 05:33N 35°28' E 139°57'0 0.0
2016-May-22 04:33N 35°28' E 139°57'  
Track history (hours):
 
Tides and Currents Weather Stations Pressure Air Temp Water Temp Dewpoint Dewpoint Depression Visibility Wind Speed Wind Dir Waves Ship Positions

Daio

Last reported at 2016-Jun-01 03:34 UTC. Time now 2016-Jun-01 03:40 UTC.
Position N 35°36' E 140°07'.

Length 36 m; draft 3.4 m.

Type: Tug. MMSI: 431003092.

Date/timePositionNaut miles runAvg speedWind from/ knotsBaromVisibWave heightAir tempDewpointWater temp
2016-Jun-01 03:34N 35°36' E 140°07'0 0.0
2016-Jun-01 02:34N 35°36' E 140°07'1 1.0
2016-Jun-01 01:34N 35°36' E 140°06'1 1.3
2016-Jun-01 00:33N 35°35' E 140°04'1 0.6
2016-May-31 23:33N 35°35' E 140°04'2 2.4
2016-May-31 22:33N 35°36' E 140°07'0 0.2
2016-May-31 21:32N 35°36' E 140°07'0 0.0
2016-May-31 20:33N 35°36' E 140°07'0 0.0
2016-May-31 19:33N 35°36' E 140°07'0 0.0
2016-May-31 18:33N 35°36' E 140°07'0 0.0
2016-May-31 17:33N 35°36' E 140°07'0 0.0
2016-May-31 16:33N 35°36' E 140°07'0 0.0
2016-May-31 15:33N 35°36' E 140°07'0 0.0
2016-May-31 14:33N 35°36' E 140°07'0 0.0
2016-May-31 13:33N 35°36' E 140°07'0 0.0
2016-May-31 12:33N 35°36' E 140°07'0 0.0
2016-May-31 11:33N 35°36' E 140°07'0 0.0
2016-May-31 10:33N 35°36' E 140°07'0 0.0
2016-May-31 09:33N 35°36' E 140°07'0 0.0
2016-May-31 08:33N 35°36' E 140°07'0 0.0
2016-May-31 07:33N 35°36' E 140°07'0 0.0
2016-May-31 06:33N 35°36' E 140°07'0 0.0
2016-May-31 04:33N 35°36' E 140°07'0 0.0
2016-May-31 03:33N 35°36' E 140°07'5 5.5
2016-May-31 02:33N 35°32' E 140°02'2 2.2
2016-May-31 01:33N 35°30' E 140°01'0 0.4
2016-May-31 00:33N 35°30' E 140°01'5 5.1
2016-May-30 23:33N 35°34' E 139°57'8 8.4
2016-May-30 22:33N 35°36' E 140°07'0 0.0
2016-May-30 21:34N 35°36' E 140°07'0 0.0
2016-May-30 20:34N 35°36' E 140°07'0 0.0
2016-May-30 19:32N 35°36' E 140°07'0 0.0
2016-May-30 18:33N 35°36' E 140°07'0 0.0
2016-May-30 17:33N 35°36' E 140°07'0 0.0
2016-May-30 16:34N 35°36' E 140°07'0 0.0
2016-May-30 15:33N 35°36' E 140°07'0 0.0
2016-May-30 14:34N 35°36' E 140°07'0 0.0
2016-May-30 13:33N 35°36' E 140°07'0 0.0
2016-May-30 12:34N 35°36' E 140°07'0 0.0
2016-May-30 11:34N 35°36' E 140°07'0 0.0
2016-May-30 10:34N 35°36' E 140°07'5 5.2
2016-May-30 09:33N 35°32' E 140°02'6 5.6
2016-May-30 08:34N 35°28' E 139°58'3 3.2
2016-May-30 07:33N 35°30' E 140°01'5 4.6
2016-May-30 06:33N 35°34' E 140°04'3 3.2
2016-May-30 05:33N 35°36' E 140°07'0 0.0
2016-May-30 04:33N 35°36' E 140°07'0 0.0
2016-May-30 03:33N 35°36' E 140°07'0 0.0
2016-May-30 02:33N 35°36' E 140°07'0 0.0
2016-May-30 01:33N 35°36' E 140°07'0 0.0
2016-May-30 00:33N 35°36' E 140°07'0 0.0
2016-May-29 23:33N 35°36' E 140°07'1 0.8
2016-May-29 22:33N 35°35' E 140°06'4 3.8
2016-May-29 21:33N 35°34' E 140°02'3 2.6
2016-May-29 20:33N 35°35' E 140°05'2 1.8
2016-May-29 19:33N 35°36' E 140°07'0 0.0
2016-May-29 18:33N 35°36' E 140°07'0 0.0
2016-May-29 17:33N 35°36' E 140°07'0 0.0
2016-May-29 16:33N 35°36' E 140°07'0 0.0
2016-May-29 15:33N 35°36' E 140°07'0 0.0
2016-May-29 14:33N 35°36' E 140°07'0 0.0
2016-May-29 13:33N 35°36' E 140°07'0 0.0
2016-May-29 12:33N 35°36' E 140°07'0 0.0
2016-May-29 11:33N 35°36' E 140°07'0 0.0
2016-May-29 10:33N 35°36' E 140°07'0 0.0
2016-May-29 09:32N 35°36' E 140°07'0 0.0
2016-May-29 08:33N 35°36' E 140°07'3 3.5
2016-May-29 07:33N 35°34' E 140°03'4 4.3
2016-May-29 06:33N 35°30' E 140°01'0 0.3
2016-May-29 05:33N 35°30' E 140°01'4 4.4
2016-May-29 04:33N 35°33' E 139°57'8 8.4
2016-May-29 03:33N 35°36' E 140°07'0 0.0
2016-May-29 02:33N 35°36' E 140°07'0 0.0
2016-May-29 01:33N 35°36' E 140°07'0 0.0
2016-May-29 00:33N 35°36' E 140°07'0 0.0
2016-May-28 23:32N 35°36' E 140°07'7 7.4
2016-May-28 22:33N 35°30' E 140°02'2 2.0
2016-May-28 21:33N 35°30' E 139°59'8 8.0
2016-May-28 20:33N 35°36' E 140°07'0 0.1
2016-May-28 19:33N 35°36' E 140°07'0 0.0
2016-May-28 18:34N 35°36' E 140°07'0 0.0
2016-May-28 17:33N 35°36' E 140°07'0 0.0
2016-May-28 16:34N 35°36' E 140°07'0 0.0
2016-May-28 15:34N 35°36' E 140°07'0 0.0
2016-May-28 14:33N 35°36' E 140°07'0 0.0
2016-May-28 13:33N 35°36' E 140°07'0 0.0
2016-May-28 12:34N 35°36' E 140°07'0 0.0
2016-May-28 11:33N 35°36' E 140°07'0 0.0
2016-May-28 10:34N 35°36' E 140°07'0 0.0
2016-May-28 09:33N 35°36' E 140°07'0 0.0
2016-May-28 08:34N 35°36' E 140°07'0 0.0
2016-May-28 07:34N 35°36' E 140°07'3 3.4
2016-May-28 06:34N 35°33' E 140°05'3 3.4
2016-May-28 05:34N 35°34' E 140°01'5 4.8
2016-May-28 04:34N 35°36' E 140°07'0 0.1
2016-May-28 03:34N 35°36' E 140°07'0 0.0
2016-May-28 02:34N 35°36' E 140°07'2 1.6
2016-May-28 01:34N 35°36' E 140°05'1 1.1
2016-May-28 00:32N 35°35' E 140°04'1 1.0
2016-May-27 23:34N 35°35' E 140°03'0 0.5
2016-May-27 22:34N 35°35' E 140°03'3 2.9
2016-May-27 21:33N 35°36' E 140°07'0 0.0
2016-May-27 20:33N 35°36' E 140°07'0 0.0
2016-May-27 19:33N 35°36' E 140°07'0 0.0
2016-May-27 18:33N 35°36' E 140°07'0 0.0
2016-May-27 17:33N 35°36' E 140°07'0 0.0
2016-May-27 16:33N 35°36' E 140°07'0 0.0
2016-May-27 15:33N 35°36' E 140°07'0 0.0
2016-May-27 14:34N 35°36' E 140°07'0 0.0
2016-May-27 13:33N 35°36' E 140°07'0 0.0
2016-May-27 12:33N 35°36' E 140°07'0 0.0
2016-May-27 11:34N 35°36' E 140°07'0 0.0
2016-May-27 10:33N 35°36' E 140°07'0 0.0
2016-May-27 09:33N 35°36' E 140°07'0 0.0
2016-May-27 08:33N 35°36' E 140°07'0 0.0
2016-May-27 07:33N 35°36' E 140°07'0 0.0
2016-May-27 06:33N 35°36' E 140°07'0 0.0
2016-May-27 05:34N 35°36' E 140°07'7 7.0
2016-May-27 04:33N 35°31' E 140°00'4 4.4
2016-May-27 03:33N 35°27' E 139°58'9 9.1
2016-May-27 02:33N 35°35' E 140°04'0 0.4
2016-May-27 01:33N 35°35' E 140°05'0 0.0
2016-May-27 00:33N 35°35' E 140°05'1 1.4
2016-May-26 23:33N 35°35' E 140°06'1 1.0
2016-May-26 22:33N 35°36' E 140°05'1 0.9
2016-May-26 21:33N 35°36' E 140°04'0 0.0
2016-May-26 20:34N 35°36' E 140°04'2 2.2
2016-May-26 19:33N 35°36' E 140°07'0 0.0
2016-May-26 18:34N 35°36' E 140°07'0 0.0
2016-May-26 17:33N 35°36' E 140°07'0 0.0
2016-May-26 16:33N 35°36' E 140°07'0 0.0
2016-May-26 15:34N 35°36' E 140°07'0 0.0
2016-May-26 14:33N 35°36' E 140°07'0 0.0
2016-May-26 13:33N 35°36' E 140°07'0 0.0
2016-May-26 12:33N 35°36' E 140°07'0 0.0
2016-May-26 11:33N 35°36' E 140°07'8 8.0
2016-May-26 10:33N 35°40' E 139°59'0 0.1
2016-May-26 09:33N 35°40' E 139°59'0 0.4
2016-May-26 08:33N 35°40' E 139°59'7 6.6
2016-May-26 07:34N 35°36' E 140°06'0 0.1
2016-May-26 06:33N 35°36' E 140°05'1 1.3
2016-May-26 05:33N 35°36' E 140°07'0 0.0
2016-May-26 04:33N 35°36' E 140°07'0 0.0
2016-May-26 03:33N 35°36' E 140°07'0 0.0
2016-May-26 02:32N 35°36' E 140°07'0 0.0
2016-May-26 01:33N 35°36' E 140°07'7 6.5
2016-May-26 00:33N 35°33' E 139°60'3 3.2
2016-May-25 23:33N 35°30' E 140°02'7 7.4
2016-May-25 22:33N 35°36' E 140°07'0 0.0
2016-May-25 21:34N 35°36' E 140°07'0 0.0
2016-May-25 20:34N 35°36' E 140°07'0 0.0
2016-May-25 19:34N 35°36' E 140°07'0 0.0
2016-May-25 18:34N 35°36' E 140°07'0 0.0
2016-May-25 17:33N 35°36' E 140°07'0 0.0
2016-May-25 16:33N 35°36' E 140°07'0 0.0
2016-May-25 15:33N 35°36' E 140°07'0 0.0
2016-May-25 14:33N 35°36' E 140°07'0 0.0
2016-May-25 13:33N 35°36' E 140°07'0 0.0
2016-May-25 12:33N 35°36' E 140°07'0 0.0
2016-May-25 11:33N 35°36' E 140°07'0 0.0
2016-May-25 10:33N 35°36' E 140°07'0 0.0
2016-May-25 09:33N 35°36' E 140°07'0 0.0
2016-May-25 08:33N 35°36' E 140°07'0 0.0
2016-May-25 05:33N 35°36' E 140°07'9 8.8
2016-May-25 04:33N 35°34' E 139°56'4 3.7
2016-May-25 03:33N 35°32' E 139°60'2 2.2
2016-May-25 02:33N 35°30' E 140°01'8 7.5
2016-May-25 01:33N 35°36' E 140°07'0 0.0
2016-May-25 00:33N 35°36' E 140°07'0 0.0
2016-May-24 23:33N 35°36' E 140°07'1 1.3
2016-May-24 22:33N 35°36' E 140°05'5 5.1
2016-May-24 21:33N 35°34' E 140°00'1 1.1
2016-May-24 20:33N 35°34' E 140°02'5 4.8
2016-May-24 19:33N 35°36' E 140°07'0 0.0
2016-May-24 18:33N 35°36' E 140°07'0 0.0
2016-May-24 17:33N 35°36' E 140°07'0 0.0
2016-May-24 16:33N 35°36' E 140°07'0 0.0
2016-May-24 15:33N 35°36' E 140°07'0 0.0
2016-May-24 14:34N 35°36' E 140°07'0 0.0
2016-May-24 13:33N 35°36' E 140°07'0 0.0
2016-May-24 12:33N 35°36' E 140°07'0 0.0
2016-May-24 11:33N 35°36' E 140°07'0 0.0
2016-May-24 10:33N 35°36' E 140°07'0 0.0
2016-May-24 09:33N 35°36' E 140°07'0 0.0
2016-May-24 08:33N 35°36' E 140°07'5 5.2
2016-May-24 07:34N 35°37' E 140°01'4 3.7
2016-May-24 06:34N 35°40' E 139°59'1 0.9
2016-May-24 05:34N 35°40' E 139°60'0 0.0
2016-May-24 04:33N 35°40' E 139°60'0 0.0
2016-May-24 03:33N 35°40' E 139°60'5 5.4
2016-May-24 02:33N 35°35' E 140°04'3 2.6
2016-May-24 01:33N 35°36' E 140°07'0 0.0
2016-May-24 00:33N 35°36' E 140°07'0 0.0
2016-May-23 23:33N 35°36' E 140°07'0 0.0
2016-May-23 22:33N 35°36' E 140°07'0 0.0
2016-May-23 21:33N 35°36' E 140°07'0 0.0
2016-May-23 20:33N 35°36' E 140°07'0 0.0
2016-May-23 19:33N 35°36' E 140°07'0 0.0
2016-May-23 18:33N 35°36' E 140°07'0 0.0
2016-May-23 17:33N 35°36' E 140°07'0 0.0
2016-May-23 16:33N 35°36' E 140°07'0 0.0
2016-May-23 15:33N 35°36' E 140°07'0 0.0
2016-May-23 14:33N 35°36' E 140°07'0 0.0
2016-May-23 13:33N 35°36' E 140°07'0 0.0
2016-May-23 12:33N 35°36' E 140°07'0 0.0
2016-May-23 11:33N 35°36' E 140°07'0 0.0
2016-May-23 10:33N 35°36' E 140°07'0 0.0
2016-May-23 09:33N 35°36' E 140°07'0 0.0
2016-May-23 08:33N 35°36' E 140°07'2 1.7
2016-May-23 07:33N 35°36' E 140°05'2 1.7
2016-May-23 06:33N 35°36' E 140°07'0 0.0
2016-May-23 05:33N 35°36' E 140°07'0 0.0
2016-May-23 04:33N 35°36' E 140°07'0 0.0
2016-May-23 03:33N 35°36' E 140°07'0 0.0
2016-May-23 02:34N 35°36' E 140°07'0 0.1
2016-May-23 01:34N 35°36' E 140°07'1 0.7
2016-May-23 00:33N 35°35' E 140°06'2 1.7
2016-May-22 23:33N 35°35' E 140°04'1 1.4
2016-May-22 22:33N 35°36' E 140°05'3 3.3
2016-May-22 21:33N 35°34' E 140°02'4 4.1
2016-May-22 20:33N 35°36' E 140°07'0 0.0
2016-May-22 19:31N 35°36' E 140°07'0 0.0
2016-May-22 18:34N 35°36' E 140°07'0 0.0
2016-May-22 17:33N 35°36' E 140°07'0 0.0
2016-May-22 16:33N 35°36' E 140°07'0 0.0
2016-May-22 15:33N 35°36' E 140°07'0 0.0
2016-May-22 14:33N 35°36' E 140°07'0 0.0
2016-May-22 13:34N 35°36' E 140°07'0 0.0
2016-May-22 12:33N 35°36' E 140°07'0 0.0
2016-May-22 11:34N 35°36' E 140°07'0 0.0
2016-May-22 10:33N 35°36' E 140°07'0 0.0
2016-May-22 09:34N 35°36' E 140°07'6 6.2
2016-May-22 08:34N 35°33' E 140°00'4 3.8
2016-May-22 07:33N 35°31' E 139°56'2 2.4
2016-May-22 06:33N 35°28' E 139°57'0 0.0
2016-May-22 05:33N 35°28' E 139°57'0 0.0
2016-May-22 04:33N 35°28' E 139°57'  

Dump ship's entire track history